Time;durP1;ratioP1;P1;durP2;ratioP2;P2;SDS_P1;SDS_P2;PMS_P1;PMS_P2;Temp;Humidity;BMP_temperature;BMP_pressure;BME280_temperature;BME280_humidity;BME280_pressure;Samples;Min_cycle;Max_cycle;Signal;HPM_P1;HPM_P2
2022/07/02 00:02:12;;;;;;;1.52;0.90;;;16.50;99.90;;;;;;5064872;28;20064;-72
2022/07/02 00:04:45;;;;;;;2.85;1.42;;;16.50;99.90;;;;;;5066990;28;20026;-72
2022/07/02 00:07:12;;;;;;;1.17;0.88;;;16.50;99.90;;;;;;5061743;28;20017;-72
2022/07/02 00:09:37;;;;;;;2.20;1.02;;;16.50;99.90;;;;;;5046051;28;20044;-73
2022/07/02 00:12:04;;;;;;;1.65;1.05;;;16.40;99.90;;;;;;5065894;28;20078;-72
2022/07/02 00:14:31;;;;;;;1.50;1.15;;;16.40;99.90;;;;;;5068860;28;20040;-72
2022/07/02 00:16:58;;;;;;;3.20;1.13;;;16.40;99.90;;;;;;5058681;28;20525;-73
2022/07/02 00:19:24;;;;;;;1.70;0.95;;;16.40;99.90;;;;;;5065470;28;20024;-72
2022/07/02 00:21:50;;;;;;;4.00;1.20;;;16.30;99.90;;;;;;5047228;28;20058;-73
2022/07/02 00:24:16;;;;;;;1.42;1.00;;;16.30;99.90;;;;;;5060188;28;20099;-73
2022/07/02 00:26:49;;;;;;;2.28;0.90;;;16.30;99.90;;;;;;5060791;28;20038;-73
2022/07/02 00:29:31;;;;;;;2.58;1.25;;;16.30;99.90;;;;;;5066412;28;20021;-73
2022/07/02 00:31:58;;;;;;;3.05;1.10;;;16.30;99.90;;;;;;5059279;28;20036;-73
2022/07/02 00:34:25;;;;;;;2.83;1.05;;;16.30;99.90;;;;;;5063147;28;20031;-73
2022/07/02 00:36:51;;;;;;;1.83;0.90;;;16.30;99.90;;;;;;5057470;28;20424;-73
2022/07/02 00:39:17;;;;;;;1.17;0.80;;;16.30;99.90;;;;;;5063571;28;20086;-73
2022/07/02 00:41:44;;;;;;;1.90;1.00;;;16.20;99.90;;;;;;5061528;28;20065;-74
2022/07/02 00:44:10;;;;;;;2.95;0.93;;;16.20;99.90;;;;;;5063190;28;20028;-73
2022/07/02 00:46:37;;;;;;;2.00;1.02;;;16.20;99.90;;;;;;5059885;28;20376;-72
2022/07/02 00:49:03;;;;;;;1.85;0.80;;;16.20;99.90;;;;;;5067918;28;20040;-72
2022/07/02 00:51:29;;;;;;;1.35;0.73;;;16.20;99.90;;;;;;5047493;28;20456;-73
2022/07/02 00:53:54;;;;;;;2.00;1.05;;;16.10;99.90;;;;;;5058872;28;20101;-73
2022/07/02 00:56:20;;;;;;;1.50;0.90;;;16.10;99.90;;;;;;5046478;28;20025;-73
2022/07/02 00:58:46;;;;;;;3.58;1.13;;;16.10;99.90;;;;;;5058265;28;20047;-73
2022/07/02 01:01:12;;;;;;;1.63;1.05;;;16.00;99.90;;;;;;5048920;28;20060;-73
2022/07/02 01:03:38;;;;;;;1.75;1.30;;;16.00;99.90;;;;;;5047061;28;20039;-72
2022/07/02 01:06:04;;;;;;;3.42;1.70;;;16.00;99.90;;;;;;5046160;28;20055;-72
2022/07/02 01:11:18;;;;;;;5.50;2.00;;;15.90;99.90;;;;;;5060775;28;20039;-72
2022/07/02 01:13:43;;;;;;;7.15;2.38;;;15.80;99.90;;;;;;5060828;28;20029;-72
2022/07/02 01:16:09;;;;;;;3.55;1.85;;;15.80;99.90;;;;;;5045472;28;20078;-72
2022/07/02 01:18:38;;;;;;;5.95;1.85;;;15.80;99.90;;;;;;5064809;28;20032;-72
2022/07/02 01:21:04;;;;;;;4.30;1.70;;;15.80;99.90;;;;;;5063029;28;20090;-72
2022/07/02 01:23:30;;;;;;;4.05;2.20;;;15.70;99.90;;;;;;5063045;28;20981;-72
2022/07/02 01:25:56;;;;;;;5.40;1.80;;;15.70;99.90;;;;;;5052602;28;20021;-72
2022/07/02 01:28:22;;;;;;;3.72;2.20;;;15.60;99.90;;;;;;5065900;28;20036;-72
2022/07/02 01:30:49;;;;;;;2.85;1.85;;;15.60;99.90;;;;;;5048714;28;20020;-71
2022/07/02 01:33:15;;;;;;;3.67;1.92;;;15.50;99.90;;;;;;5067933;28;20025;-71
2022/07/02 01:35:41;;;;;;;6.15;2.33;;;15.50;99.90;;;;;;5064877;28;20424;-72
2022/07/02 01:38:06;;;;;;;4.15;1.98;;;15.40;99.90;;;;;;5046078;28;20024;-72
2022/07/02 01:40:32;;;;;;;2.85;1.80;;;15.40;99.90;;;;;;5065043;28;20035;-71
2022/07/02 01:42:58;;;;;;;3.33;2.00;;;15.40;99.90;;;;;;5062271;28;20081;-73
2022/07/02 01:45:24;;;;;;;12.32;2.40;;;15.30;99.90;;;;;;5088096;22;20040;-85
2022/07/02 01:47:49;;;;;;;3.55;2.00;;;15.20;99.90;;;;;;5056993;28;20528;-86
2022/07/02 01:50:15;;;;;;;2.47;1.83;;;15.20;99.90;;;;;;5051953;28;20021;-87
2022/07/02 01:52:42;;;;;;;5.00;1.80;;;15.20;99.90;;;;;;5056159;28;20017;-86
2022/07/02 01:55:08;;;;;;;5.53;2.05;;;15.20;99.90;;;;;;5083218;28;20025;-86
2022/07/02 01:57:35;;;;;;;2.00;1.80;;;15.10;99.90;;;;;;5076581;28;20054;-85
2022/07/02 02:00:06;;;;;;;3.38;1.92;;;15.10;99.90;;;;;;5058062;28;20025;-84
2022/07/02 02:02:32;;;;;;;5.18;1.92;;;15.10;99.90;;;;;;5059017;28;20658;-85
2022/07/02 02:04:58;;;;;;;3.38;1.90;;;15.00;99.90;;;;;;5074490;28;20070;-85
2022/07/02 02:07:24;;;;;;;5.80;1.98;;;15.00;99.90;;;;;;5066036;28;20032;-84
2022/07/02 02:09:50;;;;;;;2.30;1.70;;;15.00;99.90;;;;;;5060015;28;20060;-84
2022/07/02 02:12:15;;;;;;;6.10;2.60;;;15.00;99.90;;;;;;5073112;28;20052;-85
2022/07/02 02:14:41;;;;;;;2.40;1.80;;;15.00;99.90;;;;;;5053436;28;20039;-84
2022/07/02 02:17:07;;;;;;;3.85;1.67;;;14.90;99.90;;;;;;5077463;28;20446;-84
2022/07/02 02:19:33;;;;;;;5.03;2.08;;;14.90;99.90;;;;;;5072628;28;20024;-84
2022/07/02 02:21:58;;;;;;;9.88;2.60;;;14.90;99.90;;;;;;5070532;28;20111;-84
2022/07/02 02:24:24;;;;;;;4.82;1.80;;;14.80;99.90;;;;;;5055438;28;20442;-83
2022/07/02 02:26:50;;;;;;;6.35;2.05;;;14.80;99.90;;;;;;5066607;28;20086;-84
2022/07/02 02:29:16;;;;;;;4.97;1.92;;;14.80;99.90;;;;;;5072640;28;20074;-84
2022/07/02 02:31:42;;;;;;;2.80;1.70;;;14.80;99.90;;;;;;5073708;28;21949;-84
2022/07/02 02:34:08;;;;;;;5.72;2.35;;;14.70;99.90;;;;;;5069935;28;20029;-83
2022/07/02 02:36:33;;;;;;;6.43;2.22;;;14.70;99.90;;;;;;5070862;28;20681;-84
2022/07/02 02:38:59;;;;;;;9.73;1.88;;;14.70;99.90;;;;;;5077320;28;20024;-84
2022/07/02 02:41:25;;;;;;;4.20;1.77;;;14.60;99.90;;;;;;5068701;28;20519;-84
2022/07/02 02:43:51;;;;;;;2.35;1.70;;;14.60;99.90;;;;;;5073012;28;20093;-84
2022/07/02 02:46:17;;;;;;;9.57;2.67;;;14.60;99.90;;;;;;5068932;28;20024;-84
2022/07/02 02:48:42;;;;;;;4.35;2.28;;;14.50;99.90;;;;;;5072542;28;20067;-85
2022/07/02 02:51:10;;;;;;;5.15;2.13;;;14.50;99.90;;;;;;5053904;28;20051;-85
2022/07/02 02:53:36;;;;;;;2.65;1.92;;;14.40;99.90;;;;;;5055909;28;20414;-85
2022/07/02 02:56:02;;;;;;;3.97;2.60;;;14.40;99.90;;;;;;5053419;28;20032;-85
2022/07/02 02:58:28;;;;;;;3.85;2.40;;;14.30;99.90;;;;;;5050264;28;20023;-85
2022/07/02 03:00:55;;;;;;;7.97;3.05;;;14.30;99.90;;;;;;5068848;28;20021;-86
2022/07/02 03:03:21;;;;;;;3.08;2.17;;;14.30;99.90;;;;;;5058171;28;20111;-85
2022/07/02 03:05:46;;;;;;;4.50;2.50;;;14.30;99.90;;;;;;5048817;28;20111;-84
2022/07/02 03:08:12;;;;;;;3.88;2.55;;;14.20;99.90;;;;;;5070272;28;20081;-85
2022/07/02 03:10:37;;;;;;;3.95;2.40;;;14.20;99.90;;;;;;5057395;28;20021;-85
2022/07/02 03:13:03;;;;;;;4.78;2.22;;;14.20;99.90;;;;;;5058461;28;20071;-85
2022/07/02 03:15:29;;;;;;;3.17;2.00;;;14.20;99.90;;;;;;5062937;28;20060;-85
2022/07/02 03:17:54;;;;;;;5.10;2.42;;;14.20;99.90;;;;;;5072251;28;20115;-85
2022/07/02 03:20:20;;;;;;;5.38;2.03;;;14.20;99.90;;;;;;5067836;28;20059;-86
2022/07/02 03:22:46;;;;;;;2.58;1.83;;;14.20;99.90;;;;;;5069099;28;20036;-86
2022/07/02 03:25:11;;;;;;;4.93;2.10;;;14.20;99.90;;;;;;5050950;28;20047;-86
2022/07/02 03:27:38;;;;;;;4.90;2.00;;;14.20;99.90;;;;;;5073418;28;20503;-85
2022/07/02 03:30:05;;;;;;;4.55;1.92;;;14.10;99.90;;;;;;5070518;28;20024;-84
2022/07/02 03:32:31;;;;;;;4.43;2.50;;;14.10;99.90;;;;;;5055576;28;20463;-84
2022/07/02 03:34:57;;;;;;;5.03;1.80;;;14.10;99.90;;;;;;5077555;28;20050;-85
2022/07/02 03:37:26;;;;;;;4.60;2.25;;;14.00;99.90;;;;;;5068986;28;20064;-85
2022/07/02 03:39:52;;;;;;;3.53;2.28;;;14.00;99.90;;;;;;5075264;28;20069;-84
2022/07/02 03:42:18;;;;;;;4.07;2.45;;;13.90;99.90;;;;;;5052095;28;20028;-85
2022/07/02 03:44:43;;;;;;;6.30;2.40;;;13.90;99.90;;;;;;5069822;28;20039;-85
2022/07/02 03:47:09;;;;;;;6.38;2.58;;;13.90;99.90;;;;;;5075874;28;20020;-85
2022/07/02 03:49:35;;;;;;;7.25;2.35;;;13.90;99.90;;;;;;5051024;28;20035;-84
2022/07/02 03:52:01;;;;;;;4.35;2.53;;;13.80;99.90;;;;;;5044710;22;20458;-88
2022/07/02 03:54:26;;;;;;;6.63;2.85;;;13.90;99.90;;;;;;5009955;28;20159;-88
2022/07/02 03:56:52;;;;;;;5.22;2.55;;;13.80;99.90;;;;;;5000085;28;20025;-88
2022/07/02 03:59:18;;;;;;;5.75;2.85;;;13.80;99.90;;;;;;5008751;28;20026;-88
2022/07/02 04:01:44;;;;;;;5.40;3.72;;;13.90;99.90;;;;;;5008926;28;20113;-88
2022/07/02 04:04:09;;;;;;;8.40;4.43;;;13.90;99.90;;;;;;5015368;28;20018;-87
2022/07/02 04:06:35;;;;;;;7.03;4.30;;;13.90;99.90;;;;;;5015882;28;20030;-88
2022/07/02 04:09:01;;;;;;;7.97;4.28;;;13.90;99.90;;;;;;5016976;28;20018;-89
2022/07/02 04:11:26;;;;;;;7.03;4.05;;;13.90;99.90;;;;;;5016614;28;20037;-88
2022/07/02 04:13:52;;;;;;;7.32;3.55;;;13.90;99.90;;;;;;5000886;28;20030;-89
2022/07/02 04:16:18;;;;;;;6.45;2.88;;;13.90;99.90;;;;;;5007140;28;20754;-88
2022/07/02 04:18:43;;;;;;;11.30;3.33;;;13.90;99.90;;;;;;5026939;28;20545;-88
2022/07/02 04:21:09;;;;;;;8.27;2.80;;;14.00;99.90;;;;;;5011339;28;20385;-87
2022/07/02 04:23:34;;;;;;;7.57;3.30;;;14.00;99.90;;;;;;5007950;28;20065;-87
2022/07/02 04:26:00;;;;;;;6.85;3.42;;;14.10;99.90;;;;;;5011250;28;20068;-87
2022/07/02 04:28:26;;;;;;;4.47;3.03;;;14.10;99.90;;;;;;5007404;28;20065;-89
2022/07/02 04:30:52;;;;;;;8.80;3.05;;;14.20;99.90;;;;;;5009664;28;20029;-91
2022/07/02 04:33:17;;;;;;;4.55;3.05;;;14.20;99.90;;;;;;5012683;28;20034;-90
2022/07/02 04:35:43;;;;;;;9.25;2.95;;;14.40;99.90;;;;;;5010562;28;20430;-90
2022/07/02 04:38:09;;;;;;;5.38;3.30;;;14.50;99.90;;;;;;5011813;28;20140;-90
2022/07/02 04:40:35;;;;;;;4.53;2.97;;;14.50;99.90;;;;;;5012280;28;20104;-90
2022/07/02 04:43:00;;;;;;;6.10;3.00;;;14.70;99.90;;;;;;5008498;28;20034;-90
2022/07/02 04:45:26;;;;;;;5.13;2.85;;;14.80;99.90;;;;;;5011945;28;20072;-89
2022/07/02 04:47:51;;;;;;;4.07;2.83;;;14.90;99.90;;;;;;5003018;28;20536;-91
2022/07/02 04:50:17;;;;;;;6.18;3.00;;;15.10;99.90;;;;;;5008585;28;20030;-89
2022/07/02 04:52:47;;;;;;;3.42;2.45;;;15.20;99.90;;;;;;5011078;28;20030;-90
2022/07/02 04:55:15;;;;;;;3.83;2.90;;;15.40;99.90;;;;;;5003746;28;20836;-93
2022/07/02 04:57:41;;;;;;;4.38;3.15;;;15.50;99.90;;;;;;5004720;28;20103;-88
2022/07/02 05:00:08;;;;;;;4.57;2.70;;;15.70;99.90;;;;;;5010200;28;20029;-87
2022/07/02 05:02:35;;;;;;;3.53;2.25;;;15.80;99.90;;;;;;5009845;28;20117;-86
2022/07/02 05:05:01;;;;;;;6.60;2.60;;;15.90;99.90;;;;;;5006010;28;20512;-85
2022/07/02 05:07:26;;;;;;;5.88;2.58;;;16.10;99.90;;;;;;5005054;28;20031;-85
2022/07/02 05:09:52;;;;;;;4.63;2.80;;;16.20;99.90;;;;;;5006428;28;20030;-86
2022/07/02 05:12:18;;;;;;;4.63;2.88;;;16.30;99.90;;;;;;5010175;28;20479;-85
2022/07/02 05:14:43;;;;;;;8.20;3.35;;;16.50;99.90;;;;;;5010536;28;20037;-85
2022/07/02 05:17:09;;;;;;;6.05;3.50;;;16.60;99.90;;;;;;5007674;28;20033;-85
2022/07/02 05:19:35;;;;;;;3.92;2.60;;;16.70;99.90;;;;;;5010864;28;20033;-85
2022/07/02 05:22:00;;;;;;;4.20;2.90;;;16.80;99.90;;;;;;5007691;28;20109;-85
2022/07/02 05:24:26;;;;;;;4.18;3.20;;;16.80;99.90;;;;;;5003109;28;20420;-87
2022/07/02 05:26:52;;;;;;;5.47;3.35;;;16.80;99.90;;;;;;5009561;28;20034;-87
2022/07/02 05:29:17;;;;;;;5.85;3.40;;;16.90;99.90;;;;;;5009108;28;20081;-87
2022/07/02 05:31:43;;;;;;;7.82;2.80;;;17.00;99.90;;;;;;5005834;28;20030;-88
2022/07/02 05:34:08;;;;;;;6.85;3.13;;;17.20;99.90;;;;;;5006507;28;20050;-86
2022/07/02 05:36:34;;;;;;;4.60;2.85;;;17.30;99.90;;;;;;5008367;28;20025;-86
2022/07/02 05:39:00;;;;;;;5.38;2.97;;;17.40;99.90;;;;;;5008013;28;20219;-86
2022/07/02 05:41:25;;;;;;;12.45;3.67;;;17.50;99.90;;;;;;5002695;28;20042;-86
2022/07/02 05:43:51;;;;;;;12.82;3.33;;;17.60;99.90;;;;;;5010299;28;20542;-86
2022/07/02 05:46:17;;;;;;;8.55;4.22;;;17.70;99.90;;;;;;5007822;28;20033;-84
2022/07/02 05:48:42;;;;;;;5.82;3.10;;;17.90;99.90;;;;;;5008970;28;20519;-85
2022/07/02 05:51:08;;;;;;;7.10;3.20;;;18.10;99.90;;;;;;5010594;28;20490;-87
2022/07/02 05:53:34;;;;;;;5.28;2.90;;;18.20;99.90;;;;;;5012309;28;20132;-86
2022/07/02 05:55:59;;;;;;;3.63;2.40;;;18.30;99.90;;;;;;5002978;28;20030;-85
2022/07/02 05:58:25;;;;;;;5.18;2.80;;;18.30;99.90;;;;;;5011685;28;20084;-87
2022/07/02 06:00:50;;;;;;;3.70;2.80;;;18.40;99.90;;;;;;5009584;28;20017;-90
2022/07/02 06:03:16;;;;;;;3.33;2.40;;;18.40;99.90;;;;;;5019279;28;20087;-81
2022/07/02 06:08:26;;;;;;;2.88;2.40;;;18.60;99.90;;;;;;5009823;28;20024;-86
2022/07/02 06:10:52;;;;;;;4.13;2.38;;;18.70;99.90;;;;;;5014222;28;20610;-88
2022/07/02 06:13:18;;;;;;;4.35;2.40;;;18.80;99.90;;;;;;5014618;28;20101;-88
2022/07/02 06:15:43;;;;;;;3.63;2.55;;;18.70;99.90;;;;;;5007813;28;20489;-88
2022/07/02 06:18:09;;;;;;;4.57;2.22;;;18.90;99.90;;;;;;5009521;28;20398;-87
2022/07/02 06:20:35;;;;;;;3.17;2.15;;;19.00;99.90;;;;;;5004021;28;20499;-88
2022/07/02 06:23:01;;;;;;;5.22;2.40;;;19.00;99.90;;;;;;5007283;28;20027;-86
2022/07/02 06:25:26;;;;;;;4.97;2.70;;;19.00;99.90;;;;;;5006582;28;20026;-87
2022/07/02 06:27:52;;;;;;;4.18;2.10;;;19.00;99.90;;;;;;5005671;28;20032;-87
2022/07/02 06:30:18;;;;;;;2.53;2.13;;;19.00;99.90;;;;;;5020079;28;20048;-86
2022/07/02 06:32:44;;;;;;;3.65;1.95;;;19.00;99.90;;;;;;5017316;28;20049;-86
2022/07/02 06:35:09;;;;;;;5.10;1.95;;;18.90;99.90;;;;;;5017757;28;20021;-86
2022/07/02 06:37:35;;;;;;;3.35;1.67;;;19.00;99.90;;;;;;5016391;28;20022;-85
2022/07/02 06:40:01;;;;;;;4.55;2.20;;;19.10;99.90;;;;;;5017169;28;20049;-86
2022/07/02 06:42:29;;;;;;;2.35;1.95;;;19.20;99.90;;;;;;5019042;28;20060;-83
2022/07/02 06:44:56;;;;;;;2.58;1.42;;;19.20;99.90;;;;;;5021602;28;20002;-83
2022/07/02 06:47:22;;;;;;;3.50;2.13;;;19.30;99.90;;;;;;5034950;28;20022;-83
2022/07/02 06:49:49;;;;;;;2.03;1.75;;;19.50;99.90;;;;;;5013347;28;20036;-88
2022/07/02 06:52:16;;;;;;;3.85;1.80;;;19.50;99.90;;;;;;5005072;28;20046;-88
2022/07/02 06:54:43;;;;;;;4.47;1.55;;;19.50;99.90;;;;;;5007705;28;20052;-88
2022/07/02 06:57:09;;;;;;;3.63;1.65;;;19.40;99.90;;;;;;5008367;28;20037;-88
2022/07/02 06:59:35;;;;;;;2.80;1.50;;;19.30;99.90;;;;;;5007720;28;20638;-88
2022/07/02 07:02:01;;;;;;;4.15;1.35;;;19.30;99.90;;;;;;5028803;28;20029;-88
2022/07/02 07:04:27;;;;;;;4.32;1.50;;;19.30;99.90;;;;;;5009195;28;20453;-89
2022/07/02 07:06:57;;;;;;;2.67;1.33;;;19.20;99.90;;;;;;5006921;28;20040;-88
2022/07/02 07:09:23;;;;;;;5.07;1.65;;;19.20;99.90;;;;;;5008510;28;20083;-88
2022/07/02 07:11:50;;;;;;;1.17;1.00;;;19.20;99.90;;;;;;5008826;28;20574;-88
2022/07/02 07:14:15;;;;;;;1.10;0.80;;;19.10;99.90;;;;;;5008003;28;20440;-88
2022/07/02 07:16:41;;;;;;;3.05;1.30;;;19.00;99.90;;;;;;5007862;28;20029;-88
2022/07/02 07:19:09;;;;;;;2.33;1.10;;;19.10;99.90;;;;;;5009816;28;20507;-87
2022/07/02 07:21:37;;;;;;;3.05;1.40;;;19.00;99.90;;;;;;5004309;28;20037;-88
2022/07/02 07:24:04;;;;;;;4.13;1.58;;;19.00;99.90;;;;;;4998876;28;20498;-87
2022/07/02 07:26:29;;;;;;;2.85;1.27;;;19.00;99.90;;;;;;5004537;28;20037;-88
2022/07/02 07:28:55;;;;;;;1.67;1.20;;;19.00;99.90;;;;;;5002750;28;20034;-88
2022/07/02 07:31:21;;;;;;;1.90;1.05;;;19.10;99.90;;;;;;5003470;28;20424;-88
2022/07/02 07:33:51;;;;;;;1.60;1.15;;;19.10;99.90;;;;;;5002844;28;20526;-88
2022/07/02 07:36:18;;;;;;;2.45;1.13;;;19.30;99.90;;;;;;5005235;28;20022;-88
2022/07/02 07:38:44;;;;;;;3.25;0.93;;;19.30;99.90;;;;;;5009818;28;20076;-86
2022/07/02 07:41:10;;;;;;;1.48;0.90;;;19.40;99.90;;;;;;5007124;28;20478;-88
2022/07/02 07:43:36;;;;;;;0.98;0.82;;;19.40;99.90;;;;;;5009866;28;20105;-89
2022/07/02 07:46:02;;;;;;;2.58;0.73;;;19.50;99.90;;;;;;5013160;28;20024;-88
2022/07/02 07:48:28;;;;;;;1.20;0.90;;;19.50;99.90;;;;;;5009913;28;20034;-88
2022/07/02 07:50:53;;;;;;;5.63;0.85;;;19.50;99.90;;;;;;5006877;28;20128;-89
2022/07/02 07:53:19;;;;;;;1.30;0.82;;;19.50;99.90;;;;;;5011014;28;20060;-89
2022/07/02 07:55:46;;;;;;;2.33;0.50;;;19.70;99.90;;;;;;5005897;28;20049;-88
2022/07/02 07:58:12;;;;;;;1.20;0.50;;;19.80;99.90;;;;;;5009230;28;20045;-88
2022/07/02 08:00:38;;;;;;;2.92;0.63;;;19.90;99.90;;;;;;5005145;28;20025;-88
2022/07/02 08:03:03;;;;;;;2.78;0.60;;;20.00;99.90;;;;;;5021884;28;20096;-90
2022/07/02 08:05:29;;;;;;;2.17;0.57;;;20.10;99.70;;;;;;5007943;28;20478;-90
2022/07/02 08:07:55;;;;;;;4.63;0.70;;;20.30;98.90;;;;;;5013000;28;20387;-88
2022/07/02 08:10:20;;;;;;;0.90;0.50;;;20.40;98.60;;;;;;5026679;28;20022;-88
2022/07/02 08:12:48;;;;;;;1.75;0.77;;;20.50;98.30;;;;;;5009245;28;20083;-90
2022/07/02 08:15:14;;;;;;;0.85;0.57;;;20.60;98.00;;;;;;5009320;28;20478;-88
2022/07/02 08:17:40;;;;;;;0.80;0.50;;;20.70;99.80;;;;;;5013411;28;20087;-88
2022/07/02 08:20:07;;;;;;;1.42;0.60;;;20.80;99.30;;;;;;5018740;28;20386;-88
2022/07/02 08:22:33;;;;;;;0.47;0.40;;;20.90;97.80;;;;;;5011884;28;20030;-89
2022/07/02 08:24:59;;;;;;;1.67;0.60;;;21.00;96.40;;;;;;5015137;28;20041;-89
2022/07/02 08:27:25;;;;;;;2.70;0.52;;;21.10;96.10;;;;;;5014166;28;20030;-88
2022/07/02 08:29:52;;;;;;;2.17;0.60;;;21.10;95.40;;;;;;5026513;28;20029;-89
2022/07/02 08:32:18;;;;;;;2.00;0.57;;;21.20;94.40;;;;;;5014013;28;20045;-87
2022/07/02 08:34:44;;;;;;;1.65;0.63;;;21.30;94.00;;;;;;5014646;28;20048;-90
2022/07/02 08:37:09;;;;;;;0.60;0.40;;;21.40;93.10;;;;;;5009261;28;20984;-88
2022/07/02 08:39:35;;;;;;;0.63;0.40;;;21.40;91.90;;;;;;5013885;28;20486;-89
2022/07/02 08:42:03;;;;;;;1.92;0.70;;;21.40;91.40;;;;;;5015015;28;20104;-92
2022/07/02 08:44:31;;;;;;;4.82;0.90;;;21.50;90.10;;;;;;5015100;28;21002;-90
2022/07/02 08:46:58;;;;;;;2.22;0.70;;;21.60;89.50;;;;;;5010617;28;20017;-90
2022/07/02 08:49:25;;;;;;;0.77;0.50;;;21.70;87.50;;;;;;5013802;28;20049;-90
2022/07/02 08:51:57;;;;;;;0.50;0.40;;;21.80;86.70;;;;;;5025691;28;20080;-89
2022/07/02 08:54:23;;;;;;;0.80;0.57;;;21.90;85.70;;;;;;5002121;28;20033;-88
2022/07/02 08:56:51;;;;;;;1.13;0.50;;;21.90;85.60;;;;;;4997458;28;20030;-88
2022/07/02 08:59:18;;;;;;;0.75;0.50;;;21.90;83.50;;;;;;5003978;28;20148;-88
2022/07/02 09:01:47;;;;;;;2.08;0.40;;;22.00;84.40;;;;;;4953145;28;20117;-88
2022/07/02 09:04:14;;;;;;;2.50;0.57;;;22.00;84.80;;;;;;5001624;28;20481;-88
2022/07/02 09:06:43;;;;;;;1.58;0.60;;;22.10;84.90;;;;;;5009098;28;20482;-88
2022/07/02 09:09:09;;;;;;;0.70;0.40;;;22.10;84.60;;;;;;5028314;28;20160;-89
2022/07/02 09:11:36;;;;;;;0.98;0.50;;;22.20;83.30;;;;;;5013875;28;20099;-90
2022/07/02 09:14:02;;;;;;;0.60;0.50;;;22.30;83.10;;;;;;5028987;28;20438;-88
2022/07/02 09:16:28;;;;;;;2.05;0.65;;;22.40;82.90;;;;;;5029025;28;20033;-87
2022/07/02 09:18:56;;;;;;;2.55;0.70;;;22.40;82.50;;;;;;5014499;28;20030;-93
2022/07/02 09:21:22;;;;;;;1.13;0.80;;;22.50;80.60;;;;;;5032081;28;20039;-89
2022/07/02 09:23:52;;;;;;;0.88;0.60;;;22.50;79.50;;;;;;5024751;28;20529;-91
2022/07/02 09:26:23;;;;;;;0.75;0.57;;;22.60;79.30;;;;;;5032400;28;20049;-91
2022/07/02 09:28:59;;;;;;;1.33;0.85;;;22.60;78.30;;;;;;5016899;28;20040;-84
2022/07/02 09:31:35;;;;;;;1.35;0.57;;;22.50;78.40;;;;;;5017254;28;20026;-86
2022/07/02 09:34:01;;;;;;;1.00;0.40;;;22.60;78.20;;;;;;5012296;28;20025;-89
2022/07/02 09:36:26;;;;;;;1.20;0.68;;;22.60;77.50;;;;;;5029753;28;20036;-87
2022/07/02 09:38:54;;;;;;;0.45;0.40;;;22.60;76.60;;;;;;5011023;28;20033;-86
2022/07/02 09:41:23;;;;;;;0.45;0.40;;;22.60;76.50;;;;;;5021916;28;20053;-86
2022/07/02 09:43:56;;;;;;;1.80;0.63;;;22.60;76.60;;;;;;5018515;28;20026;-84
2022/07/02 09:46:22;;;;;;;1.05;0.70;;;22.70;75.50;;;;;;5010873;28;20018;-87
2022/07/02 09:48:48;;;;;;;1.17;0.63;;;22.60;74.90;;;;;;5008193;28;20030;-88
2022/07/02 09:51:15;;;;;;;0.80;0.50;;;22.80;73.90;;;;;;5013073;28;20041;-87
2022/07/02 09:53:53;;;;;;;0.40;0.40;;;22.80;72.80;;;;;;5013021;28;20029;-87
2022/07/02 09:56:20;;;;;;;3.22;0.70;;;22.80;72.10;;;;;;5013728;28;20054;-88
2022/07/02 09:58:47;;;;;;;0.80;0.70;;;22.90;71.50;;;;;;5035142;28;20054;-89
2022/07/02 10:01:17;;;;;;;1.05;0.60;;;22.90;71.60;;;;;;5022733;28;20022;-87
2022/07/02 10:03:53;;;;;;;1.13;0.60;;;23.00;71.40;;;;;;5041110;28;20602;-89
2022/07/02 10:06:20;;;;;;;2.53;0.60;;;23.00;70.50;;;;;;5041584;28;20029;-84
2022/07/02 10:08:47;;;;;;;1.90;0.60;;;23.00;69.70;;;;;;5013277;28;20030;-86
2022/07/02 10:11:15;;;;;;;1.65;0.50;;;23.10;70.40;;;;;;5009586;28;20037;-87
2022/07/02 10:13:47;;;;;;;2.38;0.50;;;23.10;69.90;;;;;;5025585;28;20053;-88
2022/07/02 10:16:14;;;;;;;0.45;0.35;;;23.10;69.90;;;;;;5008573;28;20175;-86
2022/07/02 10:18:42;;;;;;;2.05;0.50;;;23.10;69.80;;;;;;5009771;28;20108;-87
2022/07/02 10:21:11;;;;;;;0.52;0.30;;;23.20;69.00;;;;;;5017177;28;20026;-88
2022/07/02 10:23:39;;;;;;;1.10;0.50;;;23.20;69.20;;;;;;5015714;28;20092;-87
2022/07/02 10:26:05;;;;;;;0.30;0.30;;;23.20;68.50;;;;;;5020606;28;20026;-86
2022/07/02 10:28:30;;;;;;;0.80;0.50;;;23.20;68.10;;;;;;5025993;28;20478;-87
2022/07/02 10:31:00;;;;;;;2.15;0.43;;;23.20;68.10;;;;;;5016922;28;20026;-86
2022/07/02 10:33:41;;;;;;;0.90;0.50;;;23.20;68.20;;;;;;5029491;28;20596;-85
2022/07/02 10:36:16;;;;;;;0.55;0.47;;;23.30;68.60;;;;;;5024591;28;20538;-87
2022/07/02 10:38:46;;;;;;;1.30;0.40;;;23.30;68.00;;;;;;5016936;28;20082;-84
2022/07/02 10:41:12;;;;;;;1.75;0.63;;;23.30;67.10;;;;;;5018685;28;20041;-87
2022/07/02 10:43:39;;;;;;;1.40;0.60;;;23.30;66.60;;;;;;5015881;28;20030;-87
2022/07/02 10:46:10;;;;;;;0.82;0.50;;;23.20;66.30;;;;;;5020177;28;24244;-87
2022/07/02 10:48:48;;;;;;;0.85;0.47;;;23.30;66.60;;;;;;5017474;28;20374;-86
2022/07/02 10:51:18;;;;;;;1.00;0.50;;;23.30;66.70;;;;;;5036214;28;20034;-88
2022/07/02 10:53:49;;;;;;;1.15;0.50;;;23.30;66.70;;;;;;5015146;28;20107;-88
2022/07/02 10:56:15;;;;;;;0.80;0.30;;;23.30;66.50;;;;;;5016983;28;20049;-86
2022/07/02 10:58:41;;;;;;;1.52;0.43;;;23.40;66.30;;;;;;5039262;28;20080;-86
2022/07/02 11:01:15;;;;;;;0.52;0.40;;;23.40;65.40;;;;;;5030995;28;20030;-88
2022/07/02 11:04:01;;;;;;;0.60;0.40;;;23.40;65.50;;;;;;5022281;28;20113;-88
2022/07/02 11:06:31;;;;;;;0.93;0.50;;;23.40;65.60;;;;;;5028815;28;20552;-86
2022/07/02 11:08:58;;;;;;;0.73;0.40;;;23.40;65.50;;;;;;5017755;28;20056;-87
2022/07/02 11:11:35;;;;;;;1.02;0.50;;;23.40;66.10;;;;;;5031907;28;20018;-86
2022/07/02 11:14:05;;;;;;;1.42;0.65;;;23.40;65.20;;;;;;5033338;28;20037;-88
2022/07/02 11:16:37;;;;;;;1.25;0.50;;;23.40;65.30;;;;;;5018783;28;20040;-88
2022/07/02 11:19:04;;;;;;;0.70;0.43;;;23.40;65.60;;;;;;5016080;28;20085;-87
2022/07/02 11:21:30;;;;;;;1.55;0.40;;;23.40;65.70;;;;;;5012575;28;20038;-87
2022/07/02 11:23:56;;;;;;;1.20;0.60;;;23.40;63.50;;;;;;5030926;28;20030;-86
2022/07/02 11:26:24;;;;;;;0.88;0.70;;;23.40;65.20;;;;;;5015195;28;20040;-92
2022/07/02 11:28:51;;;;;;;0.90;0.70;;;23.40;65.80;;;;;;5028755;28;20018;-90
2022/07/02 11:31:19;;;;;;;0.82;0.70;;;23.40;66.50;;;;;;5017392;28;20026;-91
2022/07/02 11:33:48;;;;;;;1.10;0.82;;;23.50;66.40;;;;;;5044738;28;20049;-85
2022/07/02 11:36:14;;;;;;;1.75;0.90;;;23.50;67.10;;;;;;5051278;28;20018;-91
2022/07/02 11:38:41;;;;;;;1.05;0.57;;;23.40;67.90;;;;;;5030651;28;20081;-89
2022/07/02 11:41:19;;;;;;;0.80;0.45;;;23.40;68.50;;;;;;5032824;28;20010;-91
2022/07/02 11:43:46;;;;;;;0.55;0.50;;;23.30;68.70;;;;;;5068542;23;20512;-73
2022/07/02 11:46:13;;;;;;;0.90;0.60;;;23.40;68.70;;;;;;5034528;28;20029;-74
2022/07/02 11:48:39;;;;;;;3.15;0.73;;;23.30;68.00;;;;;;5033918;28;20033;-74
2022/07/02 11:51:05;;;;;;;1.33;0.80;;;23.40;68.60;;;;;;5033392;28;20482;-74
2022/07/02 11:53:31;;;;;;;2.13;0.80;;;23.30;69.40;;;;;;5033569;28;20345;-74
2022/07/02 11:56:07;;;;;;;2.03;0.70;;;23.40;70.60;;;;;;5033812;28;20033;-74
2022/07/02 11:58:43;;;;;;;0.50;0.45;;;23.50;70.60;;;;;;5053186;28;20449;-77
2022/07/02 12:01:21;;;;;;;1.20;0.63;;;23.50;70.70;;;;;;5053572;28;20053;-78
2022/07/02 12:03:48;;;;;;;1.38;0.50;;;23.50;72.10;;;;;;5050549;28;20033;-77
2022/07/02 12:06:15;;;;;;;2.42;0.70;;;23.60;72.40;;;;;;5036014;28;20029;-77
2022/07/02 12:08:41;;;;;;;3.08;0.63;;;23.60;72.70;;;;;;5036570;28;20048;-76
2022/07/02 12:11:16;;;;;;;0.88;0.60;;;23.60;72.30;;;;;;5039848;28;20169;-77
2022/07/02 12:13:44;;;;;;;1.15;0.80;;;23.60;72.60;;;;;;5031946;28;20110;-77
2022/07/02 12:16:18;;;;;;;0.60;0.60;;;23.60;72.60;;;;;;5031427;28;20025;-77
2022/07/02 12:18:55;;;;;;;1.08;0.60;;;23.70;73.10;;;;;;5035951;28;20021;-77
2022/07/02 12:21:20;;;;;;;0.60;0.60;;;23.80;72.10;;;;;;5030627;28;20101;-76
2022/07/02 12:23:50;;;;;;;0.85;0.60;;;23.70;73.00;;;;;;5051558;28;20052;-77
2022/07/02 12:26:34;;;;;;;0.93;0.73;;;23.70;73.30;;;;;;5036225;28;20425;-77
2022/07/02 12:31:54;;;;;;;1.35;0.60;;;23.70;72.30;;;;;;5035188;28;20044;-77
2022/07/02 12:34:22;;;;;;;0.88;0.80;;;23.70;73.40;;;;;;5036782;28;20055;-77
2022/07/02 12:36:55;;;;;;;1.27;0.80;;;23.70;74.30;;;;;;5050161;28;20026;-77
2022/07/02 12:39:37;;;;;;;0.50;0.50;;;23.80;73.90;;;;;;5037340;28;20536;-77
2022/07/02 12:42:15;;;;;;;0.77;0.70;;;23.70;73.90;;;;;;5039121;28;20068;-76
2022/07/02 12:44:57;;;;;;;1.85;0.70;;;23.80;74.20;;;;;;5036479;28;20031;-77
2022/07/02 12:47:38;;;;;;;2.35;0.50;;;23.80;74.10;;;;;;5059192;28;20025;-76
2022/07/02 12:50:10;;;;;;;1.38;0.70;;;23.80;74.00;;;;;;5039716;28;20037;-76
2022/07/02 12:53:08;;;;;;;3.15;0.60;;;23.80;71.80;;;;;;5034958;28;20405;-76
2022/07/02 12:55:41;;;;;;;2.35;0.60;;;23.80;71.10;;;;;;5031811;28;20699;-76